sensor_id;sensor_type;location;lat;lon;timestamp;P1;durP1;ratioP1;P2;durP2;ratioP2
11537;SDS011;50159;49.426;11.182;2022-09-27T00:01:03;2.77;;;2.57;;
11537;SDS011;50159;49.426;11.182;2022-09-27T00:03:34;2.37;;;2.27;;
11537;SDS011;50159;49.426;11.182;2022-09-27T00:08:34;2.57;;;2.47;;
11537;SDS011;50159;49.426;11.182;2022-09-27T00:11:06;3.53;;;2.50;;
11537;SDS011;50159;49.426;11.182;2022-09-27T00:13:40;2.10;;;2.03;;
11537;SDS011;50159;49.426;11.182;2022-09-27T00:16:08;2.33;;;2.13;;
11537;SDS011;50159;49.426;11.182;2022-09-27T00:18:35;3.70;;;2.37;;
11537;SDS011;50159;49.426;11.182;2022-09-27T00:21:12;2.20;;;2.20;;
11537;SDS011;50159;49.426;11.182;2022-09-27T00:23:41;2.93;;;2.70;;
11537;SDS011;50159;49.426;11.182;2022-09-27T00:26:10;2.67;;;2.20;;
11537;SDS011;50159;49.426;11.182;2022-09-27T00:28:39;2.40;;;2.30;;
11537;SDS011;50159;49.426;11.182;2022-09-27T00:31:40;3.13;;;2.53;;
11537;SDS011;50159;49.426;11.182;2022-09-27T00:34:00;2.47;;;2.37;;
11537;SDS011;50159;49.426;11.182;2022-09-27T00:36:30;2.77;;;2.57;;
11537;SDS011;50159;49.426;11.182;2022-09-27T00:38:59;2.57;;;2.37;;
11537;SDS011;50159;49.426;11.182;2022-09-27T00:44:00;2.77;;;2.67;;
11537;SDS011;50159;49.426;11.182;2022-09-27T00:49:21;2.47;;;2.37;;
11537;SDS011;50159;49.426;11.182;2022-09-27T00:52:00;2.77;;;2.60;;
11537;SDS011;50159;49.426;11.182;2022-09-27T00:54:33;2.60;;;2.50;;
11537;SDS011;50159;49.426;11.182;2022-09-27T00:57:06;2.80;;;2.70;;
11537;SDS011;50159;49.426;11.182;2022-09-27T00:59:38;2.60;;;2.40;;
11537;SDS011;50159;49.426;11.182;2022-09-27T01:02:19;2.93;;;2.73;;
11537;SDS011;50159;49.426;11.182;2022-09-27T01:04:46;2.40;;;2.30;;
11537;SDS011;50159;49.426;11.182;2022-09-27T01:07:15;2.60;;;2.50;;
11537;SDS011;50159;49.426;11.182;2022-09-27T01:09:41;2.67;;;2.57;;
11537;SDS011;50159;49.426;11.182;2022-09-27T01:15:12;2.57;;;2.47;;
11537;SDS011;50159;49.426;11.182;2022-09-27T01:21:03;3.10;;;2.90;;
11537;SDS011;50159;49.426;11.182;2022-09-27T01:33:17;2.33;;;2.17;;
11537;SDS011;50159;49.426;11.182;2022-09-27T01:38:55;2.00;;;1.90;;
11537;SDS011;50159;49.426;11.182;2022-09-27T01:47:04;1.90;;;1.90;;
11537;SDS011;50159;49.426;11.182;2022-09-27T01:50:01;1.97;;;1.97;;
11537;SDS011;50159;49.426;11.182;2022-09-27T01:52:58;1.83;;;1.80;;
11537;SDS011;50159;49.426;11.182;2022-09-27T01:55:32;1.80;;;1.80;;
11537;SDS011;50159;49.426;11.182;2022-09-27T01:58:05;1.67;;;1.67;;
11537;SDS011;50159;49.426;11.182;2022-09-27T02:00:39;1.70;;;1.70;;
11537;SDS011;50159;49.426;11.182;2022-09-27T02:03:18;1.70;;;1.70;;
11537;SDS011;50159;49.426;11.182;2022-09-27T02:05:58;1.70;;;1.70;;
11537;SDS011;50159;49.426;11.182;2022-09-27T02:08:35;1.70;;;1.70;;
11537;SDS011;50159;49.426;11.182;2022-09-27T02:11:11;1.70;;;1.70;;
11537;SDS011;50159;49.426;11.182;2022-09-27T02:13:45;2.10;;;1.80;;
11537;SDS011;50159;49.426;11.182;2022-09-27T02:22:41;1.90;;;1.80;;
11537;SDS011;50159;49.426;11.182;2022-09-27T02:28:23;1.77;;;1.67;;
11537;SDS011;50159;49.426;11.182;2022-09-27T02:30:42;1.50;;;1.50;;
11537;SDS011;50159;49.426;11.182;2022-09-27T02:33:10;1.80;;;1.80;;
11537;SDS011;50159;49.426;11.182;2022-09-27T02:35:37;1.77;;;1.77;;
11537;SDS011;50159;49.426;11.182;2022-09-27T02:38:04;1.80;;;1.70;;
11537;SDS011;50159;49.426;11.182;2022-09-27T02:40:34;1.70;;;1.60;;
11537;SDS011;50159;49.426;11.182;2022-09-27T02:43:09;1.70;;;1.60;;
11537;SDS011;50159;49.426;11.182;2022-09-27T03:00:23;1.60;;;1.50;;
11537;SDS011;50159;49.426;11.182;2022-09-27T03:05:52;1.20;;;1.20;;
11537;SDS011;50159;49.426;11.182;2022-09-27T03:08:28;1.50;;;1.50;;
11537;SDS011;50159;49.426;11.182;2022-09-27T03:10:55;1.50;;;1.50;;
11537;SDS011;50159;49.426;11.182;2022-09-27T03:13:22;1.63;;;1.40;;
11537;SDS011;50159;49.426;11.182;2022-09-27T03:15:49;1.50;;;1.40;;
11537;SDS011;50159;49.426;11.182;2022-09-27T03:18:16;1.60;;;1.50;;
11537;SDS011;50159;49.426;11.182;2022-09-27T03:20:43;1.77;;;1.67;;
11537;SDS011;50159;49.426;11.182;2022-09-27T03:23:09;4.23;;;1.50;;
11537;SDS011;50159;49.426;11.182;2022-09-27T03:25:37;1.47;;;1.47;;
11537;SDS011;50159;49.426;11.182;2022-09-27T03:28:04;1.57;;;1.57;;
11537;SDS011;50159;49.426;11.182;2022-09-27T03:30:31;1.83;;;1.80;;
11537;SDS011;50159;49.426;11.182;2022-09-27T03:32:58;1.87;;;1.77;;
11537;SDS011;50159;49.426;11.182;2022-09-27T03:35:24;1.60;;;1.60;;
11537;SDS011;50159;49.426;11.182;2022-09-27T03:37:51;1.70;;;1.70;;
11537;SDS011;50159;49.426;11.182;2022-09-27T03:40:18;2.20;;;1.90;;
11537;SDS011;50159;49.426;11.182;2022-09-27T03:42:45;1.97;;;1.87;;
11537;SDS011;50159;49.426;11.182;2022-09-27T03:45:15;1.80;;;1.70;;
11537;SDS011;50159;49.426;11.182;2022-09-27T03:47:43;1.97;;;1.87;;
11537;SDS011;50159;49.426;11.182;2022-09-27T03:50:10;2.20;;;2.10;;
11537;SDS011;50159;49.426;11.182;2022-09-27T03:52:37;2.53;;;2.30;;
11537;SDS011;50159;49.426;11.182;2022-09-27T03:55:04;1.90;;;1.90;;
11537;SDS011;50159;49.426;11.182;2022-09-27T03:57:32;1.80;;;1.70;;
11537;SDS011;50159;49.426;11.182;2022-09-27T03:59:59;1.93;;;1.83;;
11537;SDS011;50159;49.426;11.182;2022-09-27T04:02:26;1.93;;;1.93;;
11537;SDS011;50159;49.426;11.182;2022-09-27T04:04:53;2.20;;;2.10;;
11537;SDS011;50159;49.426;11.182;2022-09-27T04:07:20;1.77;;;1.77;;
11537;SDS011;50159;49.426;11.182;2022-09-27T04:09:48;1.87;;;1.77;;
11537;SDS011;50159;49.426;11.182;2022-09-27T04:12:15;2.73;;;1.90;;
11537;SDS011;50159;49.426;11.182;2022-09-27T04:14:42;1.97;;;1.80;;
11537;SDS011;50159;49.426;11.182;2022-09-27T04:17:09;2.17;;;1.80;;
11537;SDS011;50159;49.426;11.182;2022-09-27T04:19:35;1.63;;;1.63;;
11537;SDS011;50159;49.426;11.182;2022-09-27T04:22:02;2.03;;;1.47;;
11537;SDS011;50159;49.426;11.182;2022-09-27T04:24:29;4.07;;;1.60;;
11537;SDS011;50159;49.426;11.182;2022-09-27T04:26:56;1.53;;;1.53;;
11537;SDS011;50159;49.426;11.182;2022-09-27T04:29:23;2.07;;;1.97;;
11537;SDS011;50159;49.426;11.182;2022-09-27T04:31:50;1.50;;;1.50;;
11537;SDS011;50159;49.426;11.182;2022-09-27T04:34:17;2.53;;;1.50;;
11537;SDS011;50159;49.426;11.182;2022-09-27T04:37:10;1.53;;;1.53;;
11537;SDS011;50159;49.426;11.182;2022-09-27T04:39:37;2.57;;;1.63;;
11537;SDS011;50159;49.426;11.182;2022-09-27T04:42:04;2.53;;;1.63;;
11537;SDS011;50159;49.426;11.182;2022-09-27T04:44:31;1.50;;;1.50;;
11537;SDS011;50159;49.426;11.182;2022-09-27T04:46:58;1.53;;;1.53;;
11537;SDS011;50159;49.426;11.182;2022-09-27T04:49:25;1.73;;;1.60;;
11537;SDS011;50159;49.426;11.182;2022-09-27T04:51:52;1.40;;;1.40;;
11537;SDS011;50159;49.426;11.182;2022-09-27T04:54:18;1.70;;;1.60;;
11537;SDS011;50159;49.426;11.182;2022-09-27T04:56:45;1.50;;;1.50;;
11537;SDS011;50159;49.426;11.182;2022-09-27T04:59:14;1.90;;;1.80;;
11537;SDS011;50159;49.426;11.182;2022-09-27T05:01:41;1.50;;;1.40;;
11537;SDS011;50159;49.426;11.182;2022-09-27T05:04:08;1.60;;;1.60;;
11537;SDS011;50159;49.426;11.182;2022-09-27T05:06:35;1.60;;;1.60;;
11537;SDS011;50159;49.426;11.182;2022-09-27T05:09:02;1.70;;;1.70;;
11537;SDS011;50159;49.426;11.182;2022-09-27T05:11:29;2.00;;;1.70;;
11537;SDS011;50159;49.426;11.182;2022-09-27T05:13:56;1.50;;;1.50;;
11537;SDS011;50159;49.426;11.182;2022-09-27T05:16:22;1.73;;;1.63;;
11537;SDS011;50159;49.426;11.182;2022-09-27T05:18:50;1.70;;;1.60;;
11537;SDS011;50159;49.426;11.182;2022-09-27T05:21:16;2.83;;;1.73;;
11537;SDS011;50159;49.426;11.182;2022-09-27T05:23:43;2.00;;;1.80;;
11537;SDS011;50159;49.426;11.182;2022-09-27T05:26:13;1.90;;;1.70;;
11537;SDS011;50159;49.426;11.182;2022-09-27T05:28:40;1.53;;;1.43;;
11537;SDS011;50159;49.426;11.182;2022-09-27T05:31:09;1.70;;;1.60;;
11537;SDS011;50159;49.426;11.182;2022-09-27T05:33:38;3.87;;;1.90;;
11537;SDS011;50159;49.426;11.182;2022-09-27T05:36:07;3.40;;;1.97;;
11537;SDS011;50159;49.426;11.182;2022-09-27T05:38:34;4.00;;;1.93;;
11537;SDS011;50159;49.426;11.182;2022-09-27T05:41:01;4.53;;;1.80;;
11537;SDS011;50159;49.426;11.182;2022-09-27T05:43:29;2.83;;;2.10;;
11537;SDS011;50159;49.426;11.182;2022-09-27T05:45:56;4.70;;;2.33;;
11537;SDS011;50159;49.426;11.182;2022-09-27T05:48:23;4.13;;;1.90;;
11537;SDS011;50159;49.426;11.182;2022-09-27T05:50:51;3.10;;;2.10;;
11537;SDS011;50159;49.426;11.182;2022-09-27T05:53:18;1.90;;;1.80;;
11537;SDS011;50159;49.426;11.182;2022-09-27T05:55:44;1.40;;;1.40;;
11537;SDS011;50159;49.426;11.182;2022-09-27T05:58:12;1.60;;;1.60;;
11537;SDS011;50159;49.426;11.182;2022-09-27T06:00:41;1.70;;;1.60;;
11537;SDS011;50159;49.426;11.182;2022-09-27T06:03:09;1.50;;;1.50;;
11537;SDS011;50159;49.426;11.182;2022-09-27T06:05:38;1.73;;;1.53;;
11537;SDS011;50159;49.426;11.182;2022-09-27T06:08:09;4.17;;;2.00;;
11537;SDS011;50159;49.426;11.182;2022-09-27T06:10:39;2.67;;;1.40;;
11537;SDS011;50159;49.426;11.182;2022-09-27T06:13:10;1.77;;;1.67;;
11537;SDS011;50159;49.426;11.182;2022-09-27T06:15:41;2.90;;;1.97;;
11537;SDS011;50159;49.426;11.182;2022-09-27T06:18:10;1.73;;;1.60;;
11537;SDS011;50159;49.426;11.182;2022-09-27T06:20:41;2.13;;;1.47;;
11537;SDS011;50159;49.426;11.182;2022-09-27T06:25:41;3.10;;;2.07;;
11537;SDS011;50159;49.426;11.182;2022-09-27T06:28:08;1.93;;;1.77;;
11537;SDS011;50159;49.426;11.182;2022-09-27T06:30:40;1.93;;;1.83;;
11537;SDS011;50159;49.426;11.182;2022-09-27T06:33:17;2.00;;;1.90;;
11537;SDS011;50159;49.426;11.182;2022-09-27T06:35:46;3.03;;;1.90;;
11537;SDS011;50159;49.426;11.182;2022-09-27T06:38:16;1.20;;;1.20;;
11537;SDS011;50159;49.426;11.182;2022-09-27T06:40:46;1.70;;;1.60;;
11537;SDS011;50159;49.426;11.182;2022-09-27T06:43:14;1.87;;;1.77;;
11537;SDS011;50159;49.426;11.182;2022-09-27T06:45:43;1.97;;;1.80;;
11537;SDS011;50159;49.426;11.182;2022-09-27T06:48:11;1.87;;;1.77;;
11537;SDS011;50159;49.426;11.182;2022-09-27T06:50:40;1.93;;;1.83;;
11537;SDS011;50159;49.426;11.182;2022-09-27T06:53:10;2.17;;;2.00;;
11537;SDS011;50159;49.426;11.182;2022-09-27T06:55:39;2.57;;;2.47;;
11537;SDS011;50159;49.426;11.182;2022-09-27T06:58:08;3.10;;;2.07;;
11537;SDS011;50159;49.426;11.182;2022-09-27T07:00:55;2.23;;;1.77;;
11537;SDS011;50159;49.426;11.182;2022-09-27T07:03:23;3.90;;;2.10;;
11537;SDS011;50159;49.426;11.182;2022-09-27T07:06:03;5.23;;;2.03;;
11537;SDS011;50159;49.426;11.182;2022-09-27T07:08:32;3.13;;;1.93;;
11537;SDS011;50159;49.426;11.182;2022-09-27T07:11:01;1.83;;;1.73;;
11537;SDS011;50159;49.426;11.182;2022-09-27T07:13:31;3.17;;;1.70;;
11537;SDS011;50159;49.426;11.182;2022-09-27T07:16:00;1.80;;;1.80;;
11537;SDS011;50159;49.426;11.182;2022-09-27T07:18:27;1.77;;;1.67;;
11537;SDS011;50159;49.426;11.182;2022-09-27T07:20:54;1.50;;;1.50;;
11537;SDS011;50159;49.426;11.182;2022-09-27T07:23:25;2.60;;;1.90;;
11537;SDS011;50159;49.426;11.182;2022-09-27T07:25:52;1.50;;;1.50;;
11537;SDS011;50159;49.426;11.182;2022-09-27T07:28:19;1.73;;;1.63;;
11537;SDS011;50159;49.426;11.182;2022-09-27T07:30:47;1.63;;;1.60;;
11537;SDS011;50159;49.426;11.182;2022-09-27T07:33:14;1.63;;;1.53;;
11537;SDS011;50159;49.426;11.182;2022-09-27T07:35:41;1.40;;;1.40;;
11537;SDS011;50159;49.426;11.182;2022-09-27T07:38:09;1.23;;;1.23;;
11537;SDS011;50159;49.426;11.182;2022-09-27T07:40:41;1.40;;;1.30;;
11537;SDS011;50159;49.426;11.182;2022-09-27T07:43:09;1.40;;;1.40;;
11537;SDS011;50159;49.426;11.182;2022-09-27T07:45:37;1.20;;;1.20;;
11537;SDS011;50159;49.426;11.182;2022-09-27T07:48:09;2.83;;;1.50;;
11537;SDS011;50159;49.426;11.182;2022-09-27T07:50:39;1.30;;;1.30;;
11537;SDS011;50159;49.426;11.182;2022-09-27T07:53:06;1.10;;;1.10;;
11537;SDS011;50159;49.426;11.182;2022-09-27T07:55:37;1.20;;;1.20;;
11537;SDS011;50159;49.426;11.182;2022-09-27T07:58:08;1.40;;;1.40;;
11537;SDS011;50159;49.426;11.182;2022-09-27T08:00:37;1.30;;;1.30;;
11537;SDS011;50159;49.426;11.182;2022-09-27T08:03:06;1.20;;;1.20;;
11537;SDS011;50159;49.426;11.182;2022-09-27T08:05:36;2.10;;;1.20;;
11537;SDS011;50159;49.426;11.182;2022-09-27T08:08:03;1.10;;;1.10;;
11537;SDS011;50159;49.426;11.182;2022-09-27T08:10:31;2.27;;;1.20;;
11537;SDS011;50159;49.426;11.182;2022-09-27T08:12:59;1.17;;;1.17;;
11537;SDS011;50159;49.426;11.182;2022-09-27T08:15:29;1.20;;;1.20;;
11537;SDS011;50159;49.426;11.182;2022-09-27T08:17:58;1.30;;;1.30;;
11537;SDS011;50159;49.426;11.182;2022-09-27T08:20:24;1.20;;;1.20;;
11537;SDS011;50159;49.426;11.182;2022-09-27T08:22:51;1.40;;;1.40;;
11537;SDS011;50159;49.426;11.182;2022-09-27T08:25:18;1.63;;;1.40;;
11537;SDS011;50159;49.426;11.182;2022-09-27T08:27:54;1.47;;;1.40;;
11537;SDS011;50159;49.426;11.182;2022-09-27T08:30:23;1.30;;;1.30;;
11537;SDS011;50159;49.426;11.182;2022-09-27T08:32:54;1.47;;;1.37;;
11537;SDS011;50159;49.426;11.182;2022-09-27T08:35:23;1.50;;;1.40;;
11537;SDS011;50159;49.426;11.182;2022-09-27T08:37:53;1.30;;;1.30;;
11537;SDS011;50159;49.426;11.182;2022-09-27T08:40:27;1.37;;;1.20;;
11537;SDS011;50159;49.426;11.182;2022-09-27T08:43:12;1.20;;;1.20;;
11537;SDS011;50159;49.426;11.182;2022-09-27T08:48:58;1.13;;;1.13;;
11537;SDS011;50159;49.426;11.182;2022-09-27T08:51:36;1.00;;;1.00;;
11537;SDS011;50159;49.426;11.182;2022-09-27T08:54:05;1.57;;;1.20;;
11537;SDS011;50159;49.426;11.182;2022-09-27T08:56:44;1.30;;;1.20;;
11537;SDS011;50159;49.426;11.182;2022-09-27T08:59:21;1.00;;;1.00;;
11537;SDS011;50159;49.426;11.182;2022-09-27T09:01:55;1.40;;;1.30;;
11537;SDS011;50159;49.426;11.182;2022-09-27T09:04:24;1.10;;;1.10;;
11537;SDS011;50159;49.426;11.182;2022-09-27T09:22:35;1.30;;;1.30;;
11537;SDS011;50159;49.426;11.182;2022-09-27T09:25:28;1.70;;;1.60;;
11537;SDS011;50159;49.426;11.182;2022-09-27T09:33:57;1.13;;;1.10;;
11537;SDS011;50159;49.426;11.182;2022-09-27T09:36:42;1.70;;;1.60;;
11537;SDS011;50159;49.426;11.182;2022-09-27T09:39:18;1.90;;;1.80;;
11537;SDS011;50159;49.426;11.182;2022-09-27T09:42:12;1.90;;;1.80;;
11537;SDS011;50159;49.426;11.182;2022-09-27T09:45:11;1.87;;;1.87;;
11537;SDS011;50159;49.426;11.182;2022-09-27T09:48:35;1.40;;;1.40;;
11537;SDS011;50159;49.426;11.182;2022-09-27T09:50:53;3.77;;;2.60;;
11537;SDS011;50159;49.426;11.182;2022-09-27T09:56:06;3.70;;;3.50;;
11537;SDS011;50159;49.426;11.182;2022-09-27T09:58:52;4.67;;;3.27;;
11537;SDS011;50159;49.426;11.182;2022-09-27T10:01:35;4.77;;;4.37;;
11537;SDS011;50159;49.426;11.182;2022-09-27T10:04:11;3.90;;;2.77;;
11537;SDS011;50159;49.426;11.182;2022-09-27T10:06:46;2.63;;;2.30;;
11537;SDS011;50159;49.426;11.182;2022-09-27T10:09:15;2.77;;;2.57;;
11537;SDS011;50159;49.426;11.182;2022-09-27T10:11:49;4.10;;;2.97;;
11537;SDS011;50159;49.426;11.182;2022-09-27T10:14:17;5.00;;;4.60;;
11537;SDS011;50159;49.426;11.182;2022-09-27T10:16:47;3.30;;;3.10;;
11537;SDS011;50159;49.426;11.182;2022-09-27T10:19:25;1.97;;;1.87;;
11537;SDS011;50159;49.426;11.182;2022-09-27T10:22:04;1.90;;;1.90;;
11537;SDS011;50159;49.426;11.182;2022-09-27T10:24:59;2.30;;;2.20;;
11537;SDS011;50159;49.426;11.182;2022-09-27T10:27:51;2.00;;;2.00;;
11537;SDS011;50159;49.426;11.182;2022-09-27T10:30:26;2.30;;;2.10;;
11537;SDS011;50159;49.426;11.182;2022-09-27T10:32:59;2.03;;;1.60;;
11537;SDS011;50159;49.426;11.182;2022-09-27T10:38:11;2.40;;;2.20;;
11537;SDS011;50159;49.426;11.182;2022-09-27T10:40:50;4.90;;;4.27;;
11537;SDS011;50159;49.426;11.182;2022-09-27T10:46:09;2.97;;;2.57;;
11537;SDS011;50159;49.426;11.182;2022-09-27T10:48:46;3.27;;;3.07;;
11537;SDS011;50159;49.426;11.182;2022-09-27T10:51:24;2.83;;;2.63;;
11537;SDS011;50159;49.426;11.182;2022-09-27T10:53:56;2.33;;;2.13;;
11537;SDS011;50159;49.426;11.182;2022-09-27T10:56:27;2.17;;;1.53;;
11537;SDS011;50159;49.426;11.182;2022-09-27T10:58:59;2.27;;;1.93;;
11537;SDS011;50159;49.426;11.182;2022-09-27T11:01:39;2.03;;;1.90;;
11537;SDS011;50159;49.426;11.182;2022-09-27T11:04:26;2.00;;;1.87;;
11537;SDS011;50159;49.426;11.182;2022-09-27T11:07:12;2.33;;;1.73;;
11537;SDS011;50159;49.426;11.182;2022-09-27T11:09:52;1.77;;;1.77;;
11537;SDS011;50159;49.426;11.182;2022-09-27T11:12:28;2.67;;;2.47;;
11537;SDS011;50159;49.426;11.182;2022-09-27T11:14:58;2.20;;;2.10;;
11537;SDS011;50159;49.426;11.182;2022-09-27T11:17:46;1.40;;;1.40;;
11537;SDS011;50159;49.426;11.182;2022-09-27T11:23:40;1.80;;;1.80;;
11537;SDS011;50159;49.426;11.182;2022-09-27T11:35:18;4.47;;;3.83;;
11537;SDS011;50159;49.426;11.182;2022-09-27T11:41:23;2.53;;;2.27;;
11537;SDS011;50159;49.426;11.182;2022-09-27T11:47:10;2.10;;;2.00;;
11537;SDS011;50159;49.426;11.182;2022-09-27T11:55:35;1.57;;;1.53;;
11537;SDS011;50159;49.426;11.182;2022-09-27T11:59:08;1.57;;;1.57;;
11537;SDS011;50159;49.426;11.182;2022-09-27T12:04:50;1.50;;;1.40;;
11537;SDS011;50159;49.426;11.182;2022-09-27T12:07:55;1.33;;;1.30;;
11537;SDS011;50159;49.426;11.182;2022-09-27T12:10:48;1.43;;;1.43;;
11537;SDS011;50159;49.426;11.182;2022-09-27T12:13:30;1.30;;;1.30;;
11537;SDS011;50159;49.426;11.182;2022-09-27T12:16:03;1.43;;;1.43;;
11537;SDS011;50159;49.426;11.182;2022-09-27T12:18:32;1.27;;;1.27;;
11537;SDS011;50159;49.426;11.182;2022-09-27T12:21:06;1.40;;;1.30;;
11537;SDS011;50159;49.426;11.182;2022-09-27T12:23:42;1.40;;;1.40;;
11537;SDS011;50159;49.426;11.182;2022-09-27T12:26:24;1.30;;;1.30;;
11537;SDS011;50159;49.426;11.182;2022-09-27T12:31:49;1.40;;;1.40;;
11537;SDS011;50159;49.426;11.182;2022-09-27T12:37:44;1.50;;;1.40;;
11537;SDS011;50159;49.426;11.182;2022-09-27T12:43:05;1.03;;;1.03;;
11537;SDS011;50159;49.426;11.182;2022-09-27T12:45:49;1.10;;;1.10;;
11537;SDS011;50159;49.426;11.182;2022-09-27T12:51:52;1.20;;;1.20;;
11537;SDS011;50159;49.426;11.182;2022-09-27T12:54:41;2.30;;;1.30;;
11537;SDS011;50159;49.426;11.182;2022-09-27T12:57:32;7.10;;;1.60;;
11537;SDS011;50159;49.426;11.182;2022-09-27T13:00:17;1.50;;;1.50;;
11537;SDS011;50159;49.426;11.182;2022-09-27T13:02:58;2.50;;;1.90;;
11537;SDS011;50159;49.426;11.182;2022-09-27T13:12:11;1.40;;;1.40;;
11537;SDS011;50159;49.426;11.182;2022-09-27T13:14:51;1.80;;;1.43;;
11537;SDS011;50159;49.426;11.182;2022-09-27T13:23:02;1.40;;;1.40;;
11537;SDS011;50159;49.426;11.182;2022-09-27T13:33:33;2.40;;;2.30;;
11537;SDS011;50159;49.426;11.182;2022-09-27T13:47:33;2.03;;;1.90;;
11537;SDS011;50159;49.426;11.182;2022-09-27T13:50:15;2.50;;;2.30;;
11537;SDS011;50159;49.426;11.182;2022-09-27T13:53:11;2.50;;;2.40;;
11537;SDS011;50159;49.426;11.182;2022-09-27T13:56:02;2.70;;;2.13;;
11537;SDS011;50159;49.426;11.182;2022-09-27T14:03:54;1.20;;;1.20;;
11537;SDS011;50159;49.426;11.182;2022-09-27T14:06:33;2.80;;;1.70;;
11537;SDS011;50159;49.426;11.182;2022-09-27T14:09:16;1.53;;;1.50;;
11537;SDS011;50159;49.426;11.182;2022-09-27T14:11:55;1.33;;;1.33;;
11537;SDS011;50159;49.426;11.182;2022-09-27T14:14:29;1.50;;;1.40;;
11537;SDS011;50159;49.426;11.182;2022-09-27T14:16:58;2.70;;;2.60;;
11537;SDS011;50159;49.426;11.182;2022-09-27T14:19:26;2.63;;;2.53;;
11537;SDS011;50159;49.426;11.182;2022-09-27T14:21:54;2.23;;;2.13;;
11537;SDS011;50159;49.426;11.182;2022-09-27T14:24:29;1.67;;;1.57;;
11537;SDS011;50159;49.426;11.182;2022-09-27T14:30:16;2.20;;;2.10;;
11537;SDS011;50159;49.426;11.182;2022-09-27T14:32:50;2.30;;;2.20;;
11537;SDS011;50159;49.426;11.182;2022-09-27T14:35:21;2.17;;;1.97;;
11537;SDS011;50159;49.426;11.182;2022-09-27T14:38:10;4.67;;;2.00;;
11537;SDS011;50159;49.426;11.182;2022-09-27T14:41:04;2.37;;;2.27;;
11537;SDS011;50159;49.426;11.182;2022-09-27T14:43:33;2.30;;;2.20;;
11537;SDS011;50159;49.426;11.182;2022-09-27T14:46:27;2.67;;;2.37;;
11537;SDS011;50159;49.426;11.182;2022-09-27T14:48:57;1.83;;;1.83;;
11537;SDS011;50159;49.426;11.182;2022-09-27T14:51:28;2.30;;;2.00;;
11537;SDS011;50159;49.426;11.182;2022-09-27T14:53:58;1.80;;;1.80;;
11537;SDS011;50159;49.426;11.182;2022-09-27T14:56:34;1.97;;;1.83;;
11537;SDS011;50159;49.426;11.182;2022-09-27T15:01:46;1.90;;;1.80;;
11537;SDS011;50159;49.426;11.182;2022-09-27T15:04:15;1.50;;;1.50;;
11537;SDS011;50159;49.426;11.182;2022-09-27T15:06:44;2.33;;;2.23;;
11537;SDS011;50159;49.426;11.182;2022-09-27T15:09:13;2.30;;;2.20;;
11537;SDS011;50159;49.426;11.182;2022-09-27T15:11:43;1.90;;;1.80;;
11537;SDS011;50159;49.426;11.182;2022-09-27T15:14:16;1.50;;;1.40;;
11537;SDS011;50159;49.426;11.182;2022-09-27T15:16:46;1.33;;;1.33;;
11537;SDS011;50159;49.426;11.182;2022-09-27T15:19:17;1.67;;;1.50;;
11537;SDS011;50159;49.426;11.182;2022-09-27T15:21:52;1.20;;;1.20;;
11537;SDS011;50159;49.426;11.182;2022-09-27T15:24:39;1.43;;;1.43;;
11537;SDS011;50159;49.426;11.182;2022-09-27T15:27:12;1.40;;;1.30;;
11537;SDS011;50159;49.426;11.182;2022-09-27T15:29:46;1.40;;;1.40;;
11537;SDS011;50159;49.426;11.182;2022-09-27T15:32:23;1.60;;;1.30;;
11537;SDS011;50159;49.426;11.182;2022-09-27T15:34:53;2.33;;;2.23;;
11537;SDS011;50159;49.426;11.182;2022-09-27T15:37:24;1.83;;;1.60;;
11537;SDS011;50159;49.426;11.182;2022-09-27T15:39:53;1.57;;;1.57;;
11537;SDS011;50159;49.426;11.182;2022-09-27T15:42:20;4.50;;;1.50;;
11537;SDS011;50159;49.426;11.182;2022-09-27T15:55:20;3.57;;;3.27;;
11537;SDS011;50159;49.426;11.182;2022-09-27T15:58:03;2.50;;;2.40;;
11537;SDS011;50159;49.426;11.182;2022-09-27T16:00:37;2.40;;;2.30;;
11537;SDS011;50159;49.426;11.182;2022-09-27T16:03:18;2.30;;;2.13;;
11537;SDS011;50159;49.426;11.182;2022-09-27T16:05:45;2.27;;;2.17;;
11537;SDS011;50159;49.426;11.182;2022-09-27T16:08:11;2.27;;;2.17;;
11537;SDS011;50159;49.426;11.182;2022-09-27T16:10:39;2.70;;;2.50;;
11537;SDS011;50159;49.426;11.182;2022-09-27T16:13:11;3.83;;;3.63;;
11537;SDS011;50159;49.426;11.182;2022-09-27T16:15:38;5.77;;;3.43;;
11537;SDS011;50159;49.426;11.182;2022-09-27T16:18:06;4.20;;;4.00;;
11537;SDS011;50159;49.426;11.182;2022-09-27T16:20:32;5.50;;;4.83;;
11537;SDS011;50159;49.426;11.182;2022-09-27T16:23:00;5.77;;;5.37;;
11537;SDS011;50159;49.426;11.182;2022-09-27T16:25:27;4.80;;;3.50;;
11537;SDS011;50159;49.426;11.182;2022-09-27T16:27:57;8.83;;;4.87;;
11537;SDS011;50159;49.426;11.182;2022-09-27T16:30:25;3.57;;;3.37;;
11537;SDS011;50159;49.426;11.182;2022-09-27T16:32:52;2.47;;;2.37;;
11537;SDS011;50159;49.426;11.182;2022-09-27T16:35:20;6.30;;;5.50;;
11537;SDS011;50159;49.426;11.182;2022-09-27T16:37:48;5.53;;;5.17;;
11537;SDS011;50159;49.426;11.182;2022-09-27T16:40:16;5.83;;;4.30;;
11537;SDS011;50159;49.426;11.182;2022-09-27T16:42:44;4.70;;;4.30;;
11537;SDS011;50159;49.426;11.182;2022-09-27T16:45:14;5.23;;;4.93;;
11537;SDS011;50159;49.426;11.182;2022-09-27T16:47:45;2.83;;;2.63;;
11537;SDS011;50159;49.426;11.182;2022-09-27T16:50:12;2.77;;;2.60;;
11537;SDS011;50159;49.426;11.182;2022-09-27T16:52:58;4.67;;;4.27;;
11537;SDS011;50159;49.426;11.182;2022-09-27T16:55:25;2.80;;;2.70;;
11537;SDS011;50159;49.426;11.182;2022-09-27T16:57:56;2.30;;;2.30;;
11537;SDS011;50159;49.426;11.182;2022-09-27T17:00:24;2.93;;;2.13;;
11537;SDS011;50159;49.426;11.182;2022-09-27T17:02:51;4.93;;;1.97;;
11537;SDS011;50159;49.426;11.182;2022-09-27T17:05:19;2.23;;;2.07;;
11537;SDS011;50159;49.426;11.182;2022-09-27T17:07:51;1.83;;;1.73;;
11537;SDS011;50159;49.426;11.182;2022-09-27T17:10:19;3.50;;;2.00;;
11537;SDS011;50159;49.426;11.182;2022-09-27T17:12:47;3.87;;;2.80;;
11537;SDS011;50159;49.426;11.182;2022-09-27T17:15:15;2.50;;;2.40;;
11537;SDS011;50159;49.426;11.182;2022-09-27T17:17:42;2.27;;;2.27;;
11537;SDS011;50159;49.426;11.182;2022-09-27T17:20:10;2.97;;;2.80;;
11537;SDS011;50159;49.426;11.182;2022-09-27T17:22:37;3.53;;;3.30;;
11537;SDS011;50159;49.426;11.182;2022-09-27T17:25:04;1.83;;;1.73;;
11537;SDS011;50159;49.426;11.182;2022-09-27T17:27:31;1.50;;;1.50;;
11537;SDS011;50159;49.426;11.182;2022-09-27T17:29:58;1.40;;;1.40;;
11537;SDS011;50159;49.426;11.182;2022-09-27T17:32:25;2.23;;;1.43;;
11537;SDS011;50159;49.426;11.182;2022-09-27T17:34:52;1.30;;;1.30;;
11537;SDS011;50159;49.426;11.182;2022-09-27T17:37:20;1.47;;;1.43;;
11537;SDS011;50159;49.426;11.182;2022-09-27T17:39:47;1.37;;;1.37;;
11537;SDS011;50159;49.426;11.182;2022-09-27T17:42:14;1.67;;;1.63;;
11537;SDS011;50159;49.426;11.182;2022-09-27T17:44:43;2.30;;;2.10;;
11537;SDS011;50159;49.426;11.182;2022-09-27T17:47:11;2.00;;;2.00;;
11537;SDS011;50159;49.426;11.182;2022-09-27T17:49:56;1.90;;;1.90;;
11537;SDS011;50159;49.426;11.182;2022-09-27T17:52:42;2.00;;;1.90;;
11537;SDS011;50159;49.426;11.182;2022-09-27T17:55:08;2.10;;;1.90;;
11537;SDS011;50159;49.426;11.182;2022-09-27T17:57:35;3.47;;;3.10;;
11537;SDS011;50159;49.426;11.182;2022-09-27T18:00:03;3.40;;;3.10;;
11537;SDS011;50159;49.426;11.182;2022-09-27T18:02:31;2.87;;;2.67;;
11537;SDS011;50159;49.426;11.182;2022-09-27T18:04:58;4.23;;;3.83;;
11537;SDS011;50159;49.426;11.182;2022-09-27T18:07:24;6.27;;;2.60;;
11537;SDS011;50159;49.426;11.182;2022-09-27T18:09:52;4.30;;;1.93;;
11537;SDS011;50159;49.426;11.182;2022-09-27T18:12:19;4.77;;;3.20;;